Time;durP1;ratioP1;P1;durP2;ratioP2;P2;SDS_P1;SDS_P2;PMS_P1;PMS_P2;Temp;Humidity;BMP_temperature;BMP_pressure;BME280_temperature;BME280_humidity;BME280_pressure;Samples;Min_cycle;Max_cycle;Signal;HPM_P1;HPM_P2
2023/08/31 00:00:45;;;;;;;1.38;1.15;;;16.10;99.90;;;;;;5097062;28;20070;-67
2023/08/31 00:03:12;;;;;;;1.20;1.20;;;16.10;99.90;;;;;;5096575;28;20052;-66
2023/08/31 00:05:41;;;;;;;2.30;1.52;;;16.10;99.90;;;;;;5095987;28;20056;-67
2023/08/31 00:08:07;;;;;;;2.15;1.20;;;16.10;99.90;;;;;;5077996;28;20024;-66
2023/08/31 00:10:36;;;;;;;1.70;1.20;;;16.00;99.90;;;;;;5096212;28;20382;-66
2023/08/31 00:13:03;;;;;;;1.30;1.10;;;16.10;99.90;;;;;;5096109;28;20031;-66
2023/08/31 00:15:29;;;;;;;1.20;1.10;;;16.00;99.90;;;;;;5096169;28;20061;-66
2023/08/31 00:17:55;;;;;;;2.78;1.05;;;16.00;99.90;;;;;;5077998;28;20024;-67
2023/08/31 00:20:21;;;;;;;3.00;1.10;;;16.00;99.90;;;;;;5077835;28;20062;-66
2023/08/31 00:22:48;;;;;;;1.77;1.08;;;15.90;99.90;;;;;;5096001;28;20032;-66
2023/08/31 00:25:14;;;;;;;2.08;1.38;;;;;;;;;;5095983;28;20016;-66
2023/08/31 00:27:40;;;;;;;3.05;1.30;;;15.90;99.90;;;;;;5078366;28;20028;-66
2023/08/31 00:30:14;;;;;;;2.05;1.45;;;15.90;99.90;;;;;;5095862;28;20030;-66
2023/08/31 00:32:42;;;;;;;2.60;1.38;;;;;;;;;;5077608;28;20389;-66
2023/08/31 00:35:11;;;;;;;1.93;1.20;;;15.90;99.90;;;;;;5077465;28;20024;-66
2023/08/31 00:37:36;;;;;;;1.60;1.20;;;15.90;99.90;;;;;;5095483;28;20028;-66
2023/08/31 00:40:04;;;;;;;1.60;1.50;;;15.90;99.90;;;;;;5095027;28;20477;-66
2023/08/31 00:42:30;;;;;;;1.42;1.33;;;15.90;99.90;;;;;;5095595;28;20473;-66
2023/08/31 00:44:56;;;;;;;3.53;1.15;;;15.90;99.90;;;;;;5077325;28;20054;-66
2023/08/31 00:47:22;;;;;;;1.33;1.23;;;15.90;99.90;;;;;;5095609;28;20082;-66
2023/08/31 00:49:49;;;;;;;2.03;1.40;;;15.80;99.90;;;;;;5094688;28;20036;-66
2023/08/31 00:52:15;;;;;;;2.05;1.05;;;15.80;99.90;;;;;;5077497;28;20024;-66
2023/08/31 00:54:42;;;;;;;4.10;1.45;;;15.80;99.90;;;;;;5094838;28;20032;-66
2023/08/31 00:57:09;;;;;;;1.40;1.30;;;15.80;99.90;;;;;;5077005;28;20085;-66
2023/08/31 00:59:36;;;;;;;1.60;1.50;;;15.80;99.90;;;;;;5076691;28;20081;-66
2023/08/31 01:02:20;;;;;;;1.52;1.42;;;15.70;99.90;;;;;;5094883;28;20035;-66
2023/08/31 01:05:13;;;;;;;2.50;1.45;;;15.60;99.90;;;;;;5076916;28;20433;-66
2023/08/31 01:08:07;;;;;;;1.80;1.70;;;15.60;99.90;;;;;;5094097;28;20035;-66
2023/08/31 01:10:55;;;;;;;4.45;1.77;;;15.40;99.90;;;;;;5095069;28;20105;-66
2023/08/31 01:13:25;;;;;;;1.55;1.45;;;15.30;99.90;;;;;;5076540;28;20508;-66
2023/08/31 01:15:59;;;;;;;2.40;1.85;;;15.20;99.90;;;;;;5094449;28;20028;-66
2023/08/31 01:18:27;;;;;;;3.05;1.70;;;15.20;99.90;;;;;;5094968;28;20024;-66
2023/08/31 01:21:02;;;;;;;1.52;1.42;;;15.20;99.90;;;;;;5096111;28;20552;-66
2023/08/31 01:23:53;;;;;;;1.90;1.80;;;15.20;99.90;;;;;;5078272;28;20035;-67
2023/08/31 01:26:20;;;;;;;2.25;1.92;;;15.10;99.90;;;;;;5096228;28;20347;-67
2023/08/31 01:28:47;;;;;;;2.78;1.58;;;15.10;99.90;;;;;;5095734;28;20024;-66
2023/08/31 01:31:13;;;;;;;2.83;1.52;;;15.10;99.90;;;;;;5095909;28;20020;-66
2023/08/31 01:33:39;;;;;;;3.80;2.00;;;15.00;99.90;;;;;;5093569;28;20035;-67
2023/08/31 01:36:28;;;;;;;2.55;1.85;;;14.90;99.90;;;;;;5094400;28;20050;-66
2023/08/31 01:39:16;;;;;;;2.67;2.30;;;14.80;99.90;;;;;;5093349;28;20032;-66
2023/08/31 01:41:48;;;;;;;3.38;2.45;;;14.70;99.90;;;;;;5044485;28;20071;-66
2023/08/31 01:44:16;;;;;;;3.05;2.35;;;14.60;99.90;;;;;;5094366;28;20024;-66
2023/08/31 01:46:45;;;;;;;3.33;2.20;;;14.50;99.90;;;;;;5076031;28;20430;-66
2023/08/31 01:49:11;;;;;;;;;;;14.40;99.90;;;;;;5094553;28;20119;-66
2023/08/31 01:51:37;;;;;;;3.17;2.20;;;14.40;99.90;;;;;;5075224;28;20039;-66
2023/08/31 01:54:03;;;;;;;4.57;2.50;;;14.30;99.90;;;;;;5094117;28;20028;-66
2023/08/31 01:56:28;;;;;;;2.83;2.60;;;14.20;99.90;;;;;;5094109;28;20070;-66
2023/08/31 01:58:54;;;;;;;3.60;2.42;;;14.10;99.90;;;;;;5094126;28;20032;-66
2023/08/31 02:01:20;;;;;;;2.80;2.60;;;14.10;99.90;;;;;;5093906;28;20496;-66
2023/08/31 02:03:45;;;;;;;2.60;2.40;;;14.10;99.90;;;;;;5093519;28;20032;-66
2023/08/31 02:06:11;;;;;;;2.78;2.58;;;14.00;99.90;;;;;;5094053;28;20432;-66
2023/08/31 02:08:37;;;;;;;6.13;2.97;;;14.00;99.90;;;;;;5094283;28;20157;-66
2023/08/31 02:11:02;;;;;;;5.47;2.90;;;14.00;99.90;;;;;;5093539;28;20024;-66
2023/08/31 02:13:29;;;;;;;3.13;2.80;;;14.00;99.90;;;;;;5093862;28;20028;-66
2023/08/31 02:15:55;;;;;;;3.40;2.97;;;14.00;99.90;;;;;;5093912;28;20032;-66
2023/08/31 02:18:21;;;;;;;2.47;2.38;;;14.00;99.90;;;;;;5075796;28;20028;-66
2023/08/31 02:20:46;;;;;;;3.00;2.78;;;14.00;99.90;;;;;;5075689;28;20107;-66
2023/08/31 02:23:12;;;;;;;2.90;2.70;;;14.00;99.90;;;;;;5093647;28;20034;-66
2023/08/31 02:25:38;;;;;;;3.50;2.67;;;14.00;99.90;;;;;;5093776;28;20101;-67
2023/08/31 02:28:04;;;;;;;4.75;3.20;;;13.90;99.90;;;;;;5093578;28;20036;-67
2023/08/31 02:30:30;;;;;;;3.75;2.55;;;13.90;99.90;;;;;;5093668;28;20059;-67
2023/08/31 02:32:55;;;;;;;3.40;2.90;;;13.90;99.90;;;;;;5093453;28;20081;-67
2023/08/31 02:35:21;;;;;;;3.63;3.10;;;13.90;99.90;;;;;;5093824;28;20028;-67
2023/08/31 02:37:47;;;;;;;3.33;2.95;;;13.90;99.90;;;;;;5075451;28;20064;-67
2023/08/31 02:40:12;;;;;;;3.25;3.05;;;13.90;99.90;;;;;;5075345;28;20458;-67
2023/08/31 02:42:38;;;;;;;3.42;3.10;;;13.90;99.90;;;;;;5093122;28;20393;-67
2023/08/31 02:45:05;;;;;;;4.97;3.00;;;13.90;99.90;;;;;;5093395;28;20110;-66
2023/08/31 02:47:30;;;;;;;3.17;2.97;;;13.90;99.90;;;;;;5093375;28;20411;-67
2023/08/31 02:49:56;;;;;;;11.10;4.22;;;13.90;99.90;;;;;;5093262;28;20127;-67
2023/08/31 02:52:22;;;;;;;3.80;2.90;;;14.00;99.90;;;;;;5075153;28;20024;-67
2023/08/31 02:54:47;;;;;;;4.85;2.88;;;13.90;99.90;;;;;;5093457;28;20028;-67
2023/08/31 02:57:15;;;;;;;3.30;3.00;;;13.90;99.90;;;;;;5093457;28;20024;-67
2023/08/31 02:59:42;;;;;;;2.85;2.63;;;13.90;99.90;;;;;;5075655;28;20518;-67
2023/08/31 03:02:08;;;;;;;5.57;3.05;;;14.00;99.90;;;;;;5094086;28;20111;-66
2023/08/31 03:04:33;;;;;;;3.67;2.55;;;14.00;99.90;;;;;;5097482;28;20099;-67
2023/08/31 03:06:59;;;;;;;3.33;3.03;;;14.00;99.90;;;;;;5097276;28;20032;-66
2023/08/31 03:09:26;;;;;;;3.60;3.30;;;13.90;99.90;;;;;;5079464;28;20031;-66
2023/08/31 03:11:51;;;;;;;3.33;2.92;;;13.90;99.90;;;;;;5095996;28;20024;-67
2023/08/31 03:14:17;;;;;;;3.13;2.90;;;13.90;99.90;;;;;;5079386;28;20381;-66
2023/08/31 03:16:42;;;;;;;5.60;3.05;;;13.90;99.90;;;;;;5096747;28;20508;-66
2023/08/31 03:19:08;;;;;;;6.72;3.38;;;13.80;99.90;;;;;;5078786;28;20028;-66
2023/08/31 03:21:34;;;;;;;4.70;3.30;;;13.80;99.90;;;;;;5097086;28;20017;-67
2023/08/31 03:24:00;;;;;;;5.00;3.30;;;13.80;99.90;;;;;;5096949;28;20412;-67
2023/08/31 03:26:25;;;;;;;3.17;2.88;;;13.80;99.90;;;;;;5096622;28;20020;-66
2023/08/31 03:28:51;;;;;;;3.63;2.92;;;13.80;99.90;;;;;;5096981;28;20028;-66
2023/08/31 03:31:16;;;;;;;3.75;2.92;;;13.80;99.90;;;;;;5078946;28;20024;-66
2023/08/31 03:33:42;;;;;;;5.90;2.83;;;13.80;99.90;;;;;;5078562;28;20028;-66
2023/08/31 03:36:08;;;;;;;4.13;2.53;;;13.90;99.90;;;;;;5097247;28;20042;-67
2023/08/31 03:38:37;;;;;;;3.08;2.58;;;13.90;99.90;;;;;;5096451;28;20052;-66
2023/08/31 03:41:03;;;;;;;5.53;3.55;;;13.90;99.90;;;;;;5078215;28;20028;-67
2023/08/31 03:43:29;;;;;;;4.20;3.80;;;14.00;99.90;;;;;;5078734;28;20036;-67
2023/08/31 03:45:55;;;;;;;3.78;3.45;;;14.00;99.90;;;;;;5096206;28;20032;-66
2023/08/31 03:48:22;;;;;;;3.30;2.80;;;14.00;99.90;;;;;;5096258;28;20057;-67
2023/08/31 03:50:51;;;;;;;3.85;2.80;;;14.10;99.90;;;;;;5095942;28;20481;-67
2023/08/31 03:53:17;;;;;;;3.33;3.03;;;14.10;99.90;;;;;;5078283;28;20028;-67
2023/08/31 03:55:43;;;;;;;3.67;2.70;;;14.10;99.90;;;;;;5096246;28;20039;-67
2023/08/31 03:58:09;;;;;;;3.00;2.72;;;14.10;99.90;;;;;;5077918;28;20107;-66
2023/08/31 04:00:34;;;;;;;4.70;2.97;;;14.00;99.90;;;;;;5094810;28;20492;-67
2023/08/31 04:03:00;;;;;;;3.42;2.30;;;14.00;99.90;;;;;;5096545;28;20077;-67
2023/08/31 04:05:25;;;;;;;3.47;2.80;;;13.90;99.90;;;;;;5095725;28;20077;-67
2023/08/31 04:07:51;;;;;;;3.25;3.00;;;13.80;99.90;;;;;;5095014;28;20024;-67
2023/08/31 04:10:18;;;;;;;3.70;3.40;;;13.80;99.90;;;;;;5094445;28;20024;-67
2023/08/31 04:12:44;;;;;;;4.65;3.67;;;13.80;99.90;;;;;;5095619;28;20024;-67
2023/08/31 04:15:11;;;;;;;4.97;3.42;;;13.70;99.90;;;;;;5095145;28;20518;-67
2023/08/31 04:17:36;;;;;;;4.55;3.60;;;13.80;99.90;;;;;;5095667;28;20119;-67
2023/08/31 04:20:05;;;;;;;3.63;3.13;;;13.80;99.90;;;;;;5095655;28;20454;-67
2023/08/31 04:22:31;;;;;;;3.78;3.47;;;13.80;99.90;;;;;;5077626;28;20419;-67
2023/08/31 04:24:56;;;;;;;3.95;3.60;;;13.70;99.90;;;;;;5095530;28;20028;-67
2023/08/31 04:27:22;;;;;;;6.15;3.28;;;13.70;99.90;;;;;;5094364;28;20020;-67
2023/08/31 04:29:48;;;;;;;4.30;3.30;;;13.70;99.90;;;;;;5094322;28;20024;-67
2023/08/31 04:32:14;;;;;;;5.57;3.22;;;13.70;99.90;;;;;;5094266;28;20031;-67
2023/08/31 04:34:39;;;;;;;3.70;3.40;;;13.70;99.90;;;;;;5095379;28;20043;-66
2023/08/31 04:37:05;;;;;;;4.70;3.15;;;13.70;99.90;;;;;;5094994;28;20036;-67
2023/08/31 04:39:30;;;;;;;3.42;3.22;;;13.70;99.90;;;;;;5077083;28;20059;-67
2023/08/31 04:41:56;;;;;;;6.00;2.92;;;13.60;99.90;;;;;;5095247;28;20022;-67
2023/08/31 04:44:22;;;;;;;3.08;2.78;;;13.60;99.90;;;;;;5095382;28;20057;-66
2023/08/31 04:46:48;;;;;;;4.45;3.70;;;13.60;99.90;;;;;;5094773;28;20048;-67
2023/08/31 04:49:14;;;;;;;7.53;3.33;;;13.60;99.90;;;;;;5094779;28;20066;-67
2023/08/31 04:51:41;;;;;;;3.80;3.38;;;13.60;99.90;;;;;;5076776;28;20078;-67
2023/08/31 04:54:07;;;;;;;3.20;2.95;;;13.60;99.90;;;;;;5094941;28;20027;-66
2023/08/31 04:56:34;;;;;;;4.30;3.22;;;13.60;99.90;;;;;;5076608;28;20040;-67
2023/08/31 04:59:00;;;;;;;4.80;3.15;;;13.70;99.90;;;;;;5076727;28;20043;-67
2023/08/31 05:01:26;;;;;;;4.97;3.75;;;13.80;99.90;;;;;;5076625;28;20035;-67
2023/08/31 05:03:52;;;;;;;5.82;4.15;;;13.80;99.90;;;;;;5094519;28;20032;-67
2023/08/31 05:06:18;;;;;;;4.07;3.67;;;13.90;99.90;;;;;;5077364;28;20021;-67
2023/08/31 05:08:43;;;;;;;4.40;3.40;;;14.00;99.90;;;;;;5094425;28;20020;-67
2023/08/31 05:11:09;;;;;;;5.00;3.22;;;14.10;99.90;;;;;;5076482;28;20028;-67
2023/08/31 05:13:35;;;;;;;2.80;2.60;;;14.10;99.90;;;;;;5092995;28;20076;-66
2023/08/31 05:16:00;;;;;;;2.90;2.58;;;14.20;99.90;;;;;;5094489;28;20024;-73
2023/08/31 05:18:26;;;;;;;2.60;1.95;;;14.20;99.90;;;;;;5094570;28;20043;-66
2023/08/31 05:20:51;;;;;;;3.40;2.28;;;14.30;99.90;;;;;;5094666;28;20024;-66
2023/08/31 05:23:17;;;;;;;4.18;2.40;;;14.40;99.90;;;;;;5094736;28;20429;-67
2023/08/31 05:25:43;;;;;;;5.90;2.20;;;14.50;99.90;;;;;;5093256;28;20024;-67
2023/08/31 05:28:09;;;;;;;2.63;2.17;;;14.70;99.90;;;;;;5094457;28;20455;-66
2023/08/31 05:30:35;;;;;;;3.25;1.90;;;14.80;99.90;;;;;;5094634;28;20020;-68
2023/08/31 05:33:01;;;;;;;2.90;1.70;;;15.00;99.90;;;;;;5094280;28;20450;-68
2023/08/31 05:35:27;;;;;;;2.42;2.22;;;15.10;99.90;;;;;;5094184;28;20032;-68
2023/08/31 05:37:52;;;;;;;2.63;1.67;;;15.20;99.90;;;;;;5076913;28;20020;-68
2023/08/31 05:40:18;;;;;;;1.70;1.60;;;15.30;99.90;;;;;;5094032;28;20184;-69
2023/08/31 05:42:44;;;;;;;2.85;1.80;;;15.40;99.90;;;;;;5076721;28;20043;-70
2023/08/31 05:45:10;;;;;;;1.33;1.23;;;15.40;99.90;;;;;;5094316;28;20484;-69
2023/08/31 05:47:36;;;;;;;1.75;1.65;;;15.50;99.90;;;;;;5094337;28;20078;-70
2023/08/31 05:50:02;;;;;;;3.60;1.60;;;15.50;99.90;;;;;;5094706;28;20466;-70
2023/08/31 05:52:28;;;;;;;1.52;1.30;;;15.60;99.90;;;;;;5075987;28;20020;-70
2023/08/31 05:54:54;;;;;;;1.67;1.25;;;15.70;99.90;;;;;;5092299;28;20092;-70
2023/08/31 05:57:20;;;;;;;1.88;1.20;;;15.80;99.90;;;;;;5076128;28;20039;-70
2023/08/31 05:59:47;;;;;;;1.70;1.40;;;15.90;99.90;;;;;;5075773;28;20028;-69
2023/08/31 06:02:13;;;;;;;1.40;1.30;;;16.00;99.90;;;;;;5094376;28;20400;-69
2023/08/31 06:04:38;;;;;;;3.42;1.08;;;16.10;99.90;;;;;;5075879;28;20027;-69
2023/08/31 06:07:04;;;;;;;2.10;1.15;;;16.20;99.90;;;;;;5093639;28;20028;-72
2023/08/31 06:09:30;;;;;;;1.90;0.98;;;16.30;99.90;;;;;;5093981;28;20107;-70
2023/08/31 06:11:55;;;;;;;1.27;1.17;;;16.30;99.90;;;;;;5093662;28;20440;-71
2023/08/31 06:14:21;;;;;;;3.65;1.15;;;16.30;99.90;;;;;;5093758;28;20028;-70
2023/08/31 06:16:46;;;;;;;1.20;1.10;;;16.20;99.90;;;;;;5075720;28;20032;-71
2023/08/31 06:19:15;;;;;;;3.20;1.35;;;16.30;99.90;;;;;;5093751;28;20036;-71
2023/08/31 06:21:41;;;;;;;3.13;1.10;;;16.30;99.90;;;;;;5093869;28;20052;-71
2023/08/31 06:24:09;;;;;;;2.33;1.25;;;16.40;99.90;;;;;;5094204;28;20028;-71
2023/08/31 06:26:35;;;;;;;2.40;1.25;;;16.70;99.90;;;;;;5096519;28;20386;-71
2023/08/31 06:29:03;;;;;;;2.38;1.40;;;17.00;99.90;;;;;;5076184;28;20028;-71
2023/08/31 06:31:29;;;;;;;1.08;1.05;;;17.40;99.90;;;;;;5092971;28;20047;-70
2023/08/31 06:33:55;;;;;;;1.70;1.00;;;17.90;99.90;;;;;;5093733;28;20031;-70
2023/08/31 06:36:20;;;;;;;3.97;0.93;;;18.10;99.90;;;;;;5091544;28;20028;-71
2023/08/31 06:38:46;;;;;;;1.10;0.80;;;18.30;99.90;;;;;;5087548;28;20114;-70
2023/08/31 06:41:12;;;;;;;0.85;0.85;;;18.30;99.90;;;;;;5102456;28;20114;-71
2023/08/31 06:43:37;;;;;;;1.27;1.17;;;18.30;99.90;;;;;;5107767;28;20465;-70
2023/08/31 06:46:03;;;;;;;3.00;0.90;;;18.40;99.90;;;;;;5100186;28;20050;-70
2023/08/31 06:48:29;;;;;;;1.75;0.90;;;18.90;99.90;;;;;;5100014;28;20027;-70
2023/08/31 06:50:55;;;;;;;1.42;0.80;;;19.20;99.90;;;;;;5081653;28;20048;-70
2023/08/31 06:53:21;;;;;;;3.65;1.00;;;19.20;99.90;;;;;;5081834;28;20443;-72
2023/08/31 06:55:47;;;;;;;0.95;0.80;;;18.80;99.90;;;;;;5094421;28;20034;-70
2023/08/31 06:58:13;;;;;;;0.77;0.75;;;18.50;99.90;;;;;;5120355;28;20071;-69
2023/08/31 07:00:38;;;;;;;0.80;0.77;;;18.40;99.90;;;;;;5120630;28;20349;-69
2023/08/31 07:03:07;;;;;;;1.55;1.00;;;18.60;99.90;;;;;;5120955;28;20092;-70
2023/08/31 07:05:35;;;;;;;;;;;18.80;99.90;;;;;;5103120;28;20031;-70
2023/08/31 07:08:02;;;;;;;1.08;1.08;;;18.70;99.90;;;;;;5121001;28;19911;-70
2023/08/31 07:10:28;;;;;;;0.93;0.85;;;18.40;99.90;;;;;;5090341;28;20473;-69
2023/08/31 07:12:53;;;;;;;2.58;0.90;;;18.20;99.90;;;;;;5099067;28;20024;-70
2023/08/31 07:15:19;;;;;;;1.50;0.82;;;18.10;99.90;;;;;;5100640;28;20032;-70
2023/08/31 07:17:45;;;;;;;3.10;1.13;;;18.60;99.90;;;;;;5082502;28;20354;-70
2023/08/31 07:20:12;;;;;;;0.80;0.80;;;19.20;99.90;;;;;;5100956;28;20404;-69
2023/08/31 07:22:38;;;;;;;1.17;0.88;;;19.60;99.90;;;;;;5082480;28;20031;-70
2023/08/31 07:25:07;;;;;;;1.42;1.05;;;20.10;99.90;;;;;;5100152;28;20024;-70
2023/08/31 07:27:32;;;;;;;1.10;1.00;;;20.50;99.90;;;;;;5082141;28;20366;-70
2023/08/31 07:29:58;;;;;;;2.28;0.85;;;20.70;99.90;;;;;;5100529;28;20065;-70
2023/08/31 07:32:24;;;;;;;3.88;0.90;;;20.90;99.90;;;;;;5113653;28;20030;-69
2023/08/31 07:34:49;;;;;;;1.77;0.88;;;20.80;99.50;;;;;;5121325;28;20110;-70
2023/08/31 07:37:15;;;;;;;3.50;0.77;;;21.00;99.20;;;;;;5103169;28;20457;-70
2023/08/31 07:39:41;;;;;;;0.73;0.73;;;21.10;98.80;;;;;;5105801;28;20024;-70
2023/08/31 07:42:06;;;;;;;4.13;1.02;;;21.20;98.60;;;;;;5124260;28;20055;-71
2023/08/31 07:44:35;;;;;;;1.00;0.93;;;21.10;97.90;;;;;;5091335;28;20032;-70
2023/08/31 07:47:02;;;;;;;1.80;1.10;;;21.00;98.30;;;;;;5101673;28;20024;-70
2023/08/31 07:49:28;;;;;;;1.05;0.90;;;21.40;97.80;;;;;;5081866;28;20024;-70
2023/08/31 07:51:53;;;;;;;1.48;1.10;;;21.20;97.40;;;;;;5097936;28;20085;-69
2023/08/31 07:54:22;;;;;;;2.92;1.25;;;21.20;97.30;;;;;;5097446;28;20032;-70
2023/08/31 07:56:48;;;;;;;;;;;21.50;96.90;;;;;;5096939;28;20032;-70
2023/08/31 07:59:13;;;;;;;2.00;0.98;;;21.60;96.90;;;;;;5096769;28;20287;-69
2023/08/31 08:01:41;;;;;;;1.30;1.20;;;21.90;96.70;;;;;;5078074;28;20444;-70
2023/08/31 08:04:06;;;;;;;2.58;1.00;;;22.40;95.80;;;;;;5096257;28;20024;-69
2023/08/31 08:06:32;;;;;;;2.03;1.15;;;22.80;95.30;;;;;;5088206;28;20107;-68
2023/08/31 08:08:57;;;;;;;2.60;1.10;;;23.20;94.20;;;;;;5096296;28;20028;-69
2023/08/31 08:11:23;;;;;;;1.73;1.13;;;23.30;93.60;;;;;;5096130;28;20031;-68
2023/08/31 08:13:49;;;;;;;2.22;1.50;;;23.40;92.30;;;;;;5095990;28;20201;-68
2023/08/31 08:16:14;;;;;;;3.60;1.15;;;23.70;91.10;;;;;;5094498;28;20089;-68
2023/08/31 08:18:41;;;;;;;1.30;1.10;;;23.60;91.50;;;;;;5095494;28;20059;-67
2023/08/31 08:21:06;;;;;;;7.35;1.35;;;24.00;91.40;;;;;;5094070;28;20029;-68
2023/08/31 08:23:32;;;;;;;2.25;1.23;;;23.70;91.00;;;;;;5095596;28;20031;-67
2023/08/31 08:25:59;;;;;;;3.28;1.08;;;23.30;90.00;;;;;;5095886;28;20024;-69
2023/08/31 08:28:25;;;;;;;2.50;0.98;;;22.70;90.90;;;;;;5095667;28;20020;-69
2023/08/31 08:30:51;;;;;;;0.90;0.75;;;22.70;91.50;;;;;;5094611;28;20036;-67
2023/08/31 08:33:17;;;;;;;1.90;1.00;;;22.70;91.20;;;;;;5094360;28;20141;-67
2023/08/31 08:35:43;;;;;;;1.13;1.10;;;22.60;90.80;;;;;;5094137;28;20407;-69
2023/08/31 08:38:08;;;;;;;0.85;0.70;;;22.40;90.80;;;;;;5094152;28;20517;-69
2023/08/31 08:40:34;;;;;;;1.70;0.90;;;22.30;91.10;;;;;;5095353;28;20024;-69
2023/08/31 08:43:01;;;;;;;1.90;1.00;;;22.40;91.10;;;;;;5095516;28;20098;-69
2023/08/31 08:45:36;;;;;;;0.57;0.57;;;23.00;90.60;;;;;;5094164;28;20032;-67
2023/08/31 08:48:04;;;;;;;1.17;0.75;;;23.30;88.40;;;;;;5095136;28;20031;-69
2023/08/31 08:50:33;;;;;;;1.00;0.90;;;23.00;88.90;;;;;;5093781;28;20056;-69
2023/08/31 08:53:02;;;;;;;1.13;0.98;;;22.80;88.60;;;;;;5095800;28;20073;-67
2023/08/31 08:55:27;;;;;;;0.93;0.70;;;22.50;87.90;;;;;;5068598;28;20036;-68
2023/08/31 08:57:53;;;;;;;0.73;0.73;;;22.70;89.80;;;;;;5078677;28;20034;-68
2023/08/31 09:00:19;;;;;;;1.65;1.30;;;22.90;88.50;;;;;;5112377;28;20074;-69
2023/08/31 09:02:45;;;;;;;0.93;0.93;;;22.70;88.50;;;;;;5111884;28;20480;-70
2023/08/31 09:05:11;;;;;;;1.65;0.65;;;22.60;87.70;;;;;;5112362;28;20426;-68
2023/08/31 09:07:37;;;;;;;1.13;0.73;;;22.90;87.70;;;;;;5112151;28;20032;-70
2023/08/31 09:10:03;;;;;;;2.00;0.70;;;23.20;86.00;;;;;;5094224;28;20027;-68
2023/08/31 09:12:29;;;;;;;3.15;0.80;;;23.50;85.80;;;;;;5093640;28;20046;-68
2023/08/31 09:14:59;;;;;;;0.73;0.63;;;24.20;83.80;;;;;;5095268;28;20460;-68
2023/08/31 09:17:27;;;;;;;0.80;0.80;;;24.60;81.70;;;;;;5076217;28;20024;-68
2023/08/31 09:20:04;;;;;;;3.80;0.60;;;24.40;81.80;;;;;;5076384;28;20028;-68
2023/08/31 09:22:29;;;;;;;0.52;0.52;;;24.50;82.60;;;;;;5094492;28;20393;-68
2023/08/31 09:24:55;;;;;;;0.98;0.93;;;24.40;81.50;;;;;;5094544;28;20024;-67
2023/08/31 09:27:22;;;;;;;0.68;0.68;;;24.20;81.60;;;;;;5094686;28;20025;-69
2023/08/31 09:29:48;;;;;;;0.90;0.50;;;23.70;82.30;;;;;;5076398;28;20523;-68
2023/08/31 09:32:18;;;;;;;1.27;0.52;;;23.60;81.80;;;;;;5076124;28;20028;-68
2023/08/31 09:34:44;;;;;;;0.88;0.40;;;23.60;82.60;;;;;;5093910;28;20031;-68
2023/08/31 09:37:10;;;;;;;3.72;0.50;;;24.10;80.80;;;;;;5076039;28;20032;-68
2023/08/31 09:39:37;;;;;;;0.82;0.50;;;24.40;79.90;;;;;;5076140;28;20031;-69
2023/08/31 09:42:03;;;;;;;3.03;0.70;;;25.10;78.80;;;;;;5092922;28;20359;-68
2023/08/31 09:44:28;;;;;;;0.68;0.57;;;25.20;78.10;;;;;;5094100;28;20099;-68
2023/08/31 09:46:54;;;;;;;0.95;0.50;;;25.40;76.70;;;;;;5075789;28;20062;-69
2023/08/31 09:49:21;;;;;;;1.00;0.50;;;24.90;76.30;;;;;;5094342;28;20077;-68
2023/08/31 09:51:49;;;;;;;0.65;0.65;;;25.00;77.90;;;;;;5093505;28;20075;-68
2023/08/31 09:54:17;;;;;;;0.55;0.50;;;25.00;75.40;;;;;;5093727;28;20027;-68
2023/08/31 09:56:44;;;;;;;0.45;0.40;;;25.10;75.90;;;;;;5093518;28;20043;-69
2023/08/31 09:59:11;;;;;;;1.38;0.40;;;25.30;75.30;;;;;;5094116;28;20039;-68
2023/08/31 10:01:38;;;;;;;2.63;0.45;;;25.10;74.50;;;;;;5094246;28;20107;-69
2023/08/31 10:04:06;;;;;;;0.65;0.57;;;25.20;73.50;;;;;;5093730;28;20036;-69
2023/08/31 10:06:32;;;;;;;2.05;0.45;;;25.00;74.50;;;;;;5093694;28;20023;-69
2023/08/31 10:08:58;;;;;;;2.75;0.40;;;25.00;74.70;;;;;;5075626;28;20024;-69
2023/08/31 10:11:28;;;;;;;1.48;0.73;;;25.20;72.00;;;;;;5075869;28;20024;-68
2023/08/31 10:13:55;;;;;;;0.70;0.50;;;25.20;72.00;;;;;;5075706;28;20032;-68
2023/08/31 10:16:27;;;;;;;0.22;0.22;;;25.00;72.60;;;;;;5093779;28;20032;-70
2023/08/31 10:18:54;;;;;;;0.82;0.57;;;25.20;72.70;;;;;;5094015;28;20052;-68
2023/08/31 10:21:20;;;;;;;0.85;0.50;;;24.90;72.50;;;;;;5093476;28;20036;-68
2023/08/31 10:23:47;;;;;;;1.05;0.60;;;24.90;73.90;;;;;;5075674;28;20028;-67
2023/08/31 10:26:23;;;;;;;1.75;0.60;;;24.80;72.60;;;;;;5075123;28;20166;-68
2023/08/31 10:28:49;;;;;;;1.70;0.60;;;25.20;73.30;;;;;;5075157;28;20035;-69
2023/08/31 10:31:20;;;;;;;0.93;0.45;;;25.30;73.30;;;;;;5075444;28;20049;-70
2023/08/31 10:34:04;;;;;;;0.80;0.63;;;25.90;71.80;;;;;;5075415;28;20036;-70
2023/08/31 10:36:44;;;;;;;0.73;0.40;;;25.70;70.90;;;;;;5093447;28;20522;-69
2023/08/31 10:39:19;;;;;;;0.77;0.55;;;26.10;71.30;;;;;;5075801;28;20512;-70
2023/08/31 10:41:53;;;;;;;1.02;0.47;;;26.40;69.40;;;;;;5093533;28;20077;-70
2023/08/31 10:44:21;;;;;;;2.05;0.60;;;26.70;68.70;;;;;;5075566;28;20031;-70
2023/08/31 10:46:48;;;;;;;2.77;0.57;;;26.30;67.50;;;;;;5093373;28;20107;-69
2023/08/31 10:49:15;;;;;;;1.80;0.70;;;26.00;66.90;;;;;;5093300;28;20067;-60
2023/08/31 10:51:45;;;;;;;0.50;0.50;;;26.60;67.40;;;;;;5093134;28;20101;-61
2023/08/31 10:54:13;;;;;;;1.95;0.63;;;27.20;65.50;;;;;;5093235;28;20121;-64
2023/08/31 10:56:55;;;;;;;1.10;0.70;;;27.30;66.00;;;;;;5074751;28;20058;-64
2023/08/31 10:59:25;;;;;;;2.92;0.70;;;27.70;62.20;;;;;;5074928;28;20081;-65
2023/08/31 11:02:04;;;;;;;2.40;0.60;;;27.40;62.80;;;;;;5075010;28;20469;-61
2023/08/31 11:04:30;;;;;;;2.55;0.57;;;27.30;61.80;;;;;;5093195;28;20043;-61
2023/08/31 11:07:29;;;;;;;0.70;0.50;;;27.30;60.40;;;;;;5093236;28;20024;-61
2023/08/31 11:10:11;;;;;;;0.60;0.50;;;27.60;59.20;;;;;;5037595;28;20512;-62
2023/08/31 11:12:37;;;;;;;1.58;0.82;;;27.70;58.80;;;;;;5092504;28;20027;-61
2023/08/31 11:15:03;;;;;;;0.90;0.73;;;27.40;57.30;;;;;;5092590;28;20424;-59
2023/08/31 11:17:32;;;;;;;0.88;0.50;;;27.70;57.10;;;;;;5074819;28;20059;-61
2023/08/31 11:19:58;;;;;;;1.65;0.73;;;28.10;55.80;;;;;;5092907;28;20107;-59
2023/08/31 11:22:24;;;;;;;0.73;0.65;;;28.50;56.20;;;;;;5092523;28;20032;-59
2023/08/31 11:24:49;;;;;;;1.48;0.80;;;28.10;55.60;;;;;;5094530;28;20039;-59
2023/08/31 11:27:20;;;;;;;2.53;1.35;;;28.00;55.90;;;;;;5096842;28;20024;-59
2023/08/31 11:29:46;;;;;;;1.02;0.70;;;27.50;55.80;;;;;;5096873;28;20435;-59
2023/08/31 11:32:11;;;;;;;1.48;0.68;;;27.30;55.80;;;;;;5096580;28;20024;-61
2023/08/31 11:34:55;;;;;;;1.05;0.68;;;26.80;55.60;;;;;;5096458;28;20067;-62
2023/08/31 11:37:22;;;;;;;3.95;0.85;;;26.40;58.20;;;;;;5078642;28;20028;-60
2023/08/31 11:39:53;;;;;;;2.15;0.75;;;26.60;57.40;;;;;;5078386;28;20406;-73
2023/08/31 11:42:20;;;;;;;0.70;0.70;;;26.30;57.60;;;;;;5096973;28;20028;-72
2023/08/31 11:44:48;;;;;;;1.10;0.52;;;26.60;57.50;;;;;;5078184;28;20028;-71
2023/08/31 11:47:15;;;;;;;1.13;0.68;;;26.90;57.90;;;;;;5096624;28;20533;-71
2023/08/31 11:49:42;;;;;;;2.35;0.80;;;27.30;56.30;;;;;;5078192;28;20111;-64
2023/08/31 11:52:10;;;;;;;0.88;0.60;;;27.50;55.50;;;;;;5096297;28;20538;-66
2023/08/31 11:54:40;;;;;;;0.60;0.60;;;26.80;55.50;;;;;;5096490;28;20426;-66
2023/08/31 11:57:12;;;;;;;0.65;0.50;;;27.20;55.90;;;;;;5078347;28;20032;-66
2023/08/31 11:59:39;;;;;;;0.77;0.63;;;28.10;55.90;;;;;;5096277;28;20062;-66
2023/08/31 12:02:08;;;;;;;1.67;0.77;;;28.60;54.00;;;;;;5078169;28;20028;-66
2023/08/31 12:04:45;;;;;;;0.93;0.93;;;28.40;54.30;;;;;;5078027;28;20081;-66
2023/08/31 12:07:15;;;;;;;0.68;0.55;;;28.30;53.40;;;;;;5096809;28;20402;-66
2023/08/31 12:09:41;;;;;;;0.80;0.80;;;28.40;54.50;;;;;;5096328;28;20077;-66
2023/08/31 12:12:07;;;;;;;1.10;0.80;;;28.50;52.70;;;;;;5078585;28;20021;-64
2023/08/31 12:14:36;;;;;;;1.45;0.80;;;28.30;52.90;;;;;;5077982;28;20047;-66
2023/08/31 12:17:07;;;;;;;1.00;0.73;;;28.50;53.20;;;;;;5096562;28;20024;-66
2023/08/31 12:19:35;;;;;;;0.60;0.60;;;28.50;51.60;;;;;;5095872;28;20028;-66
2023/08/31 12:22:01;;;;;;;0.82;0.50;;;27.60;52.00;;;;;;5096085;28;20059;-66
2023/08/31 12:24:27;;;;;;;1.27;0.63;;;27.00;52.40;;;;;;5077873;28;20036;-66
2023/08/31 12:26:55;;;;;;;1.48;0.60;;;26.90;52.70;;;;;;5095603;28;20024;-66
2023/08/31 12:29:21;;;;;;;2.50;0.63;;;26.50;54.30;;;;;;5095901;28;20086;-66
2023/08/31 12:31:48;;;;;;;2.92;0.63;;;26.60;55.10;;;;;;5095534;28;20039;-66
2023/08/31 12:34:15;;;;;;;3.92;0.88;;;27.00;54.90;;;;;;5095419;28;20393;-66
2023/08/31 12:36:41;;;;;;;0.90;0.70;;;26.90;55.20;;;;;;5095114;28;20047;-67
2023/08/31 12:39:10;;;;;;;0.95;0.60;;;26.70;55.60;;;;;;5095911;28;20454;-66
2023/08/31 12:41:36;;;;;;;2.67;0.90;;;26.60;55.10;;;;;;5095634;28;20059;-66
2023/08/31 12:44:03;;;;;;;3.55;0.80;;;26.70;55.40;;;;;;5095730;28;20075;-66
2023/08/31 12:46:29;;;;;;;1.95;0.65;;;27.10;56.00;;;;;;5095608;28;20028;-66
2023/08/31 12:48:55;;;;;;;3.58;0.90;;;27.30;54.70;;;;;;5095120;28;20385;-65